Terminal Aerodrome Forecast
Issued by NWS Denver/Boulder, CO

Home | Current Version | Previous Version | Text Only | Print | Product List | Glossary On
Versions: 1 2 3 4 5 6 7 8 9 10 11 12 13 14 15 16 17 18 19 20 21 22 23 24 25 26 27 28 29 30 31 32 33 34 35 36 37 38 39 40 41 42 43 44 45 46 47 48 49 50
000
FTUS45 KBOU 032255 AAC
TAFDEN
TAF AMD
KDEN 032255Z 0323/0424 09007KT P6SM OVC015
      TEMPO 0400/0403 4SM -SN BR SCT007 OVC012
     FM040300 02010G22KT 2SM -SN BR BKN008 OVC014
      TEMPO 0403/0406 3/4SM -SN BLSN VV007
     FM040700 04010KT 2SM -SN BR SCT006 OVC012
     FM041500 08006KT P6SM BKN015 OVC025
     FM041900 13006KT P6SM SCT025 BKN040=

USA.gov is the U.S. government's official web portal to all federal, state and local government web resources and services.